Terminal Aerodrome Forecast
Issued by NWS Shreveport, LA

Home | Current Version | Previous Version | Text Only | Print | Product List | Glossary On
Versions: 1 2 3 4 5 6 7 8 9 10 11 12 13 14 15 16 17 18
000
FTUS44 KSHV 221138
TAFSHV
TAF
KSHV 221138Z 2212/2312 02009KT 6SM -RA BR SCT008 SCT013 OVC025
      TEMPO 2212/2214 5SM -TSRA BR SCT008 BKN013CB
     FM221400 01008KT P6SM -RA SCT013 SCT020 BKN070
      TEMPO 2214/2217 BKN020
     FM221700 35012KT P6SM BKN023
     FM230000 33010KT P6SM SCT025 BKN035
     FM230300 34010KT P6SM SCT040
     FM230600 34006KT P6SM SKC=

USA.gov is the U.S. government's official web portal to all federal, state and local government web resources and services.